Terminal Aerodrome Forecast
Issued by NWS Charleston, WV

Current Version | Previous Version | Graphics & Text | Print | Product List | Glossary On
Versions: 1 2 3 4 5 6 7 8 9 10 11 12 13 14 15 16 17 18 19 20 21 22 23 24 25 26
000
FTUS41 KRLX 190257 AAA
TAFHTS
TAF AMD
KHTS 190257Z 1903/1924 20014G32KT 3SM SHRA BKN015 OVC030
     FM190400 29015G28KT P6SM SHRA OVC015
     FM190800 28011G22KT P6SM OVC025
     FM192100 28009G19KT P6SM BKN035=

USA.gov is the U.S. government's official web portal to all federal, state and local government web resources and services.